CheckWX is a tool to help pilots better visualize weather data.  It is not intended as a substitute for an official pre-flight weather briefing.

07:35:42 UTC

EGQL METAR
RAF Leuchars Airport
St. Andrews, United Kingdom
Current

46 mins ago

EGQL 220650Z 27008KT CAVOK 08/07 Q1035 RMK BLU
Observed
Jan-22 @ 06:50 UTC
Wind
  • 270° at 8 KTS
Visibility
10,000+ meters
Flight Rules
VFR
Cloud Levels
  • Clear skies
Temperature
C / 46°F
Dewpoint
C / 45°F
Humidity
93%
Altimeter
30.56" Hg
Pressure
1034.92 hPa
Previous

2 hours ago

EGQL 220550Z 27006KT CAVOK 08/07 Q1035 RMK BLU
Observed
Jan-22 @ 05:50 UTC
Wind
  • 270° at 6 KTS
Visibility
10,000+ meters
Flight Rules
VFR
Cloud Levels
  • Clear skies
Temperature
C / 46°F
Dewpoint
C / 45°F
Humidity
93%
Altimeter
30.56" Hg
Pressure
1034.92 hPa
Previous

3 hours ago

EGQL 220450Z 26005KT CAVOK 08/06 Q1035 RMK BLU
Observed
Jan-22 @ 04:50 UTC
Wind
  • 260° at 5 KTS
Visibility
10,000+ meters
Flight Rules
VFR
Cloud Levels
  • Clear skies
Temperature
C / 46°F
Dewpoint
C / 43°F
Humidity
87%
Altimeter
30.56" Hg
Pressure
1034.92 hPa